Terminal Aerodrome Forecast
Issued by NWS

Home | Current Version | Previous Version | Text Only | Print | Product List | Glossary On
Versions: 1 2 3 4 5 6 7 8 9 10 11 12 13 14 15 16 17 18 19 20 21 22 23 24 25
000
FTUS43 KMQT 292135 AAB
TAFCMX
TAF AMD
KCMX 292135Z 2922/3018 29015KT 5SM -DZ BR OVC003
     FM300000 33008KT 3SM -RA BR OVC008
     FM300200 34008KT 5SM -RA BR OVC014
     FM300500 35012G18KT P6SM BKN025
     FM300800 35012G18KT P6SM BKN035
     FM301000 35014G21KT P6SM SCT035=

USA.gov is the U.S. government's official web portal to all federal, state and local government web resources and services.